createdAt,value
2022-09-11T00:01:16.757Z,96368.63
2022-09-11T00:03:47.010Z,96364.06
2022-09-11T00:06:28.458Z,96361.66
2022-09-11T00:09:00.961Z,96358.38
2022-09-11T00:11:31.186Z,96361.94
2022-09-11T00:13:59.924Z,96355.78
2022-09-11T00:16:29.754Z,96361.75
2022-09-11T00:19:00.213Z,96359.81
2022-09-11T00:21:29.402Z,96356.97
2022-09-11T00:23:59.539Z,96359.66
2022-09-11T00:26:28.032Z,96365.47
2022-09-11T00:28:57.336Z,96362.81
2022-09-11T00:31:28.212Z,96361.13
2022-09-11T00:33:56.976Z,96359.28
2022-09-11T00:36:26.602Z,96364.97
2022-09-11T00:38:55.817Z,96366.22
2022-09-11T00:41:28.237Z,96366.28
2022-09-11T00:44:02.543Z,96367.81
2022-09-11T00:46:35.274Z,96356.31
2022-09-11T00:49:11.601Z,96358.28
2022-09-11T00:51:41.119Z,96362.03
2022-09-11T00:54:12.375Z,96358.66
2022-09-11T00:56:43.155Z,96356.88
2022-09-11T00:59:12.472Z,96361.03
2022-09-11T01:01:41.628Z,96350.09
2022-09-11T01:04:10.494Z,96349.88
2022-09-11T01:06:38.737Z,96345.53
2022-09-11T01:09:06.972Z,96360.97
2022-09-11T01:11:46.057Z,96353.19
2022-09-11T01:14:24.711Z,96356.22
2022-09-11T01:16:57.617Z,96359.56
2022-09-11T01:19:38.343Z,96351.97
2022-09-11T01:22:22.244Z,96345.56
2022-09-11T01:25:02.139Z,96349.44
2022-09-11T01:27:39.854Z,96353.59
2022-09-11T01:30:11.869Z,96337.25
2022-09-11T01:33:02.956Z,96338.31
2022-09-11T01:35:41.185Z,96340.41
2022-09-11T01:38:14.797Z,96345.78
2022-09-11T01:40:49.255Z,96339.41
2022-09-11T01:43:22.244Z,96334.66
2022-09-11T01:45:52.062Z,96339.38
2022-09-11T01:48:24.034Z,96350.13
2022-09-11T01:50:54.184Z,96338.16
2022-09-11T01:53:24.277Z,96348.47
2022-09-11T01:55:55.606Z,96346.59
2022-09-11T01:58:28.775Z,96345.56
2022-09-11T02:01:00.630Z,96339.19
2022-09-11T02:03:32.851Z,96350.72
2022-09-11T02:06:02.970Z,96342.44
2022-09-11T02:08:36.135Z,96341.53
2022-09-11T02:11:07.130Z,96347.44
2022-09-11T02:13:42.112Z,96350.31
2022-09-11T02:16:17.819Z,96342.88
2022-09-11T02:18:53.949Z,96332.56
2022-09-11T02:21:22.452Z,96335.84
2022-09-11T02:23:50.870Z,96344.56
2022-09-11T02:26:19.891Z,96332.63
2022-09-11T02:28:49.495Z,96345.59
2022-09-11T02:31:19.904Z,96337.50
2022-09-11T02:33:48.842Z,96332.56
2022-09-11T02:36:31.047Z,96337.13
2022-09-11T02:39:11.451Z,96338.69
2022-09-11T02:41:47.677Z,96334.66
2022-09-11T02:44:25.348Z,96328.66
2022-09-11T02:47:06.426Z,96332.56
2022-09-11T02:49:44.500Z,96331.00
2022-09-11T02:52:21.308Z,96328.22
2022-09-11T02:54:55.251Z,96325.28
2022-09-11T02:57:29.949Z,96330.16
2022-09-11T03:00:01.317Z,96318.25
2022-09-11T03:02:30.925Z,96320.94
2022-09-11T03:04:59.362Z,96323.72
2022-09-11T03:07:27.584Z,96332.78
2022-09-11T03:09:55.875Z,96319.28
2022-09-11T03:12:24.136Z,96321.03
2022-09-11T03:14:52.404Z,96328.63
2022-09-11T03:17:22.086Z,96329.47
2022-09-11T03:19:50.625Z,96320.19
2022-09-11T03:22:18.851Z,96318.75
2022-09-11T03:24:48.058Z,96319.41
2022-09-11T03:27:17.257Z,96325.19
2022-09-11T03:29:46.499Z,96312.28
2022-09-11T03:32:16.097Z,96317.13
2022-09-11T03:34:47.326Z,96314.03
2022-09-11T03:37:15.946Z,96309.47
2022-09-11T03:39:44.436Z,96306.59
2022-09-11T03:42:13.243Z,96310.56
2022-09-11T03:44:41.772Z,96316.88
2022-09-11T03:47:09.970Z,96316.13
2022-09-11T03:49:38.186Z,96315.88
2022-09-11T03:52:07.878Z,96317.16
2022-09-11T03:54:36.139Z,96316.91
2022-09-11T03:57:04.627Z,96323.56
2022-09-11T03:59:32.817Z,96310.34
2022-09-11T04:02:01.441Z,96303.31
2022-09-11T04:04:29.765Z,96305.63
2022-09-11T04:06:58.327Z,96306.41
2022-09-11T04:09:27.935Z,96304.66
2022-09-11T04:11:56.215Z,96309.78
2022-09-11T04:14:24.492Z,96300.13
2022-09-11T04:16:53.828Z,96308.63
2022-09-11T04:19:23.634Z,96312.19
2022-09-11T04:21:52.318Z,96306.72
2022-09-11T04:24:20.572Z,96310.53
2022-09-11T04:26:50.215Z,96306.19
2022-09-11T04:29:18.799Z,96305.88
2022-09-11T04:31:47.075Z,96307.50
2022-09-11T04:34:15.436Z,96309.34
2022-09-11T04:36:43.806Z,96303.78
2022-09-11T04:39:12.511Z,96303.91
2022-09-11T04:41:40.829Z,96310.59
2022-09-11T04:44:10.644Z,96308.63
2022-09-11T04:46:39.025Z,96309.75
2022-09-11T04:49:08.269Z,96313.44
2022-09-11T04:51:38.222Z,96315.31
2022-09-11T04:54:07.016Z,96317.78
2022-09-11T04:56:37.863Z,96311.63
2022-09-11T04:59:09.600Z,96315.44
2022-09-11T05:01:39.659Z,96316.91
2022-09-11T05:04:08.660Z,96314.34
2022-09-11T05:06:38.011Z,96318.22
2022-09-11T05:09:08.144Z,96317.72
2022-09-11T05:11:36.683Z,96317.53
2022-09-11T05:14:04.939Z,96319.59
2022-09-11T05:16:34.376Z,96322.34
2022-09-11T05:19:05.888Z,96315.69
2022-09-11T05:21:34.725Z,96318.59
2022-09-11T05:24:04.488Z,96332.38
2022-09-11T05:26:34.982Z,96328.50
2022-09-11T05:29:03.490Z,96322.09
2022-09-11T05:31:32.629Z,96317.41
2022-09-11T05:34:01.293Z,96316.06
2022-09-11T05:36:31.873Z,96322.09
2022-09-11T05:39:00.138Z,96320.38
2022-09-11T05:41:28.523Z,96313.00
2022-09-11T05:43:56.748Z,96314.44
2022-09-11T05:46:25.652Z,96328.44
2022-09-11T05:48:53.939Z,96328.06
2022-09-11T05:51:23.058Z,96327.13
2022-09-11T05:53:55.648Z,96333.97
2022-09-11T05:56:25.420Z,96334.09
2022-09-11T05:58:53.692Z,96341.41
2022-09-11T06:01:23.990Z,96340.16
2022-09-11T06:03:52.636Z,96347.22
2022-09-11T06:06:22.386Z,96344.72
2022-09-11T06:08:51.847Z,96354.00
2022-09-11T06:11:22.562Z,96354.22
2022-09-11T06:13:51.285Z,96353.94
2022-09-11T06:16:21.233Z,96355.47
2022-09-11T06:18:50.517Z,96363.47
2022-09-11T06:21:20.501Z,96370.53
2022-09-11T06:23:49.288Z,96372.34
2022-09-11T06:26:19.583Z,96364.09
2022-09-11T06:28:50.824Z,96371.72
2022-09-11T06:31:20.750Z,96374.41
2022-09-11T06:33:51.008Z,96379.06
2022-09-11T06:36:20.615Z,96371.34
2022-09-11T06:38:54.406Z,96374.81
2022-09-11T06:41:22.783Z,96377.28
2022-09-11T06:43:53.235Z,96374.81
2022-09-11T06:46:23.381Z,96378.72
2022-09-11T06:48:52.717Z,96370.94
2022-09-11T06:51:21.891Z,96380.41
2022-09-11T06:53:50.378Z,96377.28
2022-09-11T06:56:19.494Z,96377.88
2022-09-11T06:58:47.996Z,96381.63
2022-09-11T07:01:19.607Z,96384.06
2022-09-11T07:03:49.655Z,96385.31
2022-09-11T07:06:19.919Z,96383.50
2022-09-11T07:08:52.154Z,96385.13
2022-09-11T07:11:21.018Z,96381.19
2022-09-11T07:13:49.367Z,96385.13
2022-09-11T07:16:19.025Z,96386.94
2022-09-11T07:18:48.567Z,96382.44
2022-09-11T07:21:18.770Z,96389.44
2022-09-11T07:23:49.384Z,96382.41
2022-09-11T07:26:17.675Z,96395.00
2022-09-11T07:28:48.772Z,96391.09
2022-09-11T07:31:21.221Z,96386.78
2022-09-11T07:33:50.730Z,96398.91
2022-09-11T07:36:20.737Z,96387.91
2022-09-11T07:38:50.204Z,96398.06
2022-09-11T07:41:19.751Z,96401.38
2022-09-11T07:43:48.265Z,96406.50
2022-09-11T07:46:16.578Z,96410.53
2022-09-11T07:48:46.186Z,96410.09
2022-09-11T07:51:16.261Z,96411.41
2022-09-11T07:53:46.151Z,96417.75
2022-09-11T07:56:16.424Z,96426.19
2022-09-11T07:58:44.766Z,96429.53
2022-09-11T08:01:14.724Z,96426.94
2022-09-11T08:03:43.639Z,96425.34
2022-09-11T08:06:17.923Z,96427.50
2022-09-11T08:08:53.438Z,96435.84
2022-09-11T08:11:22.559Z,96444.41
2022-09-11T08:13:52.053Z,96443.59
2022-09-11T08:16:21.022Z,96440.44
2022-09-11T08:18:49.506Z,96441.72
2022-09-11T08:21:19.583Z,96440.88
2022-09-11T08:23:48.993Z,96450.94
2022-09-11T08:26:21.817Z,96456.38
2022-09-11T08:28:52.094Z,96458.16
2022-09-11T08:31:22.440Z,96468.50
2022-09-11T08:33:50.591Z,96462.72
2022-09-11T08:36:20.801Z,96470.03
2022-09-11T08:38:49.115Z,96464.25
2022-09-11T08:41:28.679Z,96469.94
2022-09-11T08:43:58.767Z,96462.97
2022-09-11T08:46:31.001Z,96469.63
2022-09-11T08:49:05.320Z,96468.53
2022-09-11T08:51:35.392Z,96468.81
2022-09-11T08:54:04.209Z,96469.06
2022-09-11T08:56:34.524Z,96470.41
2022-09-11T08:59:15.093Z,96472.41
2022-09-11T09:01:48.407Z,96480.72
2022-09-11T09:04:27.512Z,96477.78
2022-09-11T09:07:05.118Z,96490.34
2022-09-11T09:09:42.410Z,96491.22
2022-09-11T09:12:17.573Z,96493.19
2022-09-11T09:14:55.513Z,96491.13
2022-09-11T09:17:27.387Z,96497.75
2022-09-11T09:20:01.508Z,96515.28
2022-09-11T09:22:38.548Z,96500.13
2022-09-11T09:25:11.970Z,96500.28
2022-09-11T09:27:44.253Z,96501.88
2022-09-11T09:30:16.722Z,96506.78
2022-09-11T09:32:48.719Z,96497.66
2022-09-11T09:35:21.043Z,96511.00
2022-09-11T09:37:51.244Z,96508.38
2022-09-11T09:40:19.922Z,96526.69
2022-09-11T09:43:13.430Z,96517.53
2022-09-11T09:45:55.560Z,96523.34
2022-09-11T09:48:23.890Z,96526.25
2022-09-11T09:50:52.456Z,96527.50
2022-09-11T09:53:29.675Z,96532.06
2022-09-11T09:56:00.211Z,96525.66
2022-09-11T09:58:29.747Z,96529.19
2022-09-11T10:00:57.927Z,96524.19
2022-09-11T10:03:27.013Z,96527.00
2022-09-11T10:05:56.603Z,96521.47
2022-09-11T10:08:37.081Z,96520.41
2022-09-11T10:11:06.949Z,96529.31
2022-09-11T10:13:37.972Z,96525.00
2022-09-11T10:16:20.464Z,96518.75
2022-09-11T10:18:48.819Z,96523.91
2022-09-11T10:21:25.855Z,96517.63
2022-09-11T10:23:56.849Z,96522.38
2022-09-11T10:26:28.961Z,96526.00
2022-09-11T10:29:00.972Z,96525.97
2022-09-11T10:31:30.137Z,96525.75
2022-09-11T10:33:59.699Z,96533.59
2022-09-11T10:36:29.220Z,96537.88
2022-09-11T10:39:00.004Z,96531.88
2022-09-11T10:41:28.940Z,96531.44
2022-09-11T10:44:00.453Z,96526.38
2022-09-11T10:46:41.331Z,96535.81
2022-09-11T10:49:17.563Z,96525.72
2022-09-11T10:52:00.017Z,96530.34
2022-09-11T10:54:54.942Z,96541.53
2022-09-11T10:57:28.114Z,96538.41
2022-09-11T11:00:02.131Z,96538.16
2022-09-11T11:02:33.182Z,96536.41
2022-09-11T11:05:05.365Z,96540.69
2022-09-11T11:07:47.339Z,96540.81
2022-09-11T11:10:26.118Z,96531.38
2022-09-11T11:13:08.101Z,96532.88
2022-09-11T11:15:45.703Z,96528.91
2022-09-11T11:18:32.817Z,96534.78
2022-09-11T11:21:09.681Z,96546.13
2022-09-11T11:23:52.583Z,96552.06
2022-09-11T11:26:36.851Z,96543.69
2022-09-11T11:29:33.627Z,96538.47
2022-09-11T11:32:27.900Z,96551.25
2022-09-11T11:35:13.768Z,96553.16
2022-09-11T11:37:43.729Z,96544.84
2022-09-11T11:40:18.723Z,96546.13
2022-09-11T11:42:55.965Z,96544.53
2022-09-11T11:45:27.929Z,96551.78
2022-09-11T11:47:56.789Z,96551.66
2022-09-11T11:50:31.569Z,96543.28
2022-09-11T11:53:07.280Z,96541.31
2022-09-11T11:55:43.646Z,96544.13
2022-09-11T11:58:22.610Z,96555.16
2022-09-11T12:00:55.941Z,96552.00
2022-09-11T12:03:27.393Z,96565.59
2022-09-11T12:05:56.190Z,96559.59
2022-09-11T12:08:24.717Z,96561.47
2022-09-11T12:10:59.032Z,96557.50
2022-09-11T12:13:32.354Z,96567.31
2022-09-11T12:16:12.313Z,96560.47
2022-09-11T12:18:42.200Z,96567.38
2022-09-11T12:21:36.659Z,96575.34
2022-09-11T12:24:17.638Z,96581.38
2022-09-11T12:26:46.108Z,96579.22
2022-09-11T12:29:51.656Z,96579.22
2022-09-11T12:32:42.855Z,96572.81
2022-09-11T12:35:29.698Z,96580.09
2022-09-11T12:38:02.626Z,96574.34
2022-09-11T12:40:39.065Z,96579.38
2022-09-11T12:43:28.209Z,96578.06
2022-09-11T12:45:57.037Z,96569.91
2022-09-11T12:48:37.312Z,96572.59
2022-09-11T12:51:07.412Z,96570.38
2022-09-11T12:53:37.340Z,96562.41
2022-09-11T12:56:06.741Z,96554.69
2022-09-11T12:58:38.259Z,96560.53
2022-09-11T13:01:18.635Z,96563.19
2022-09-11T13:03:52.681Z,96549.53
2022-09-11T13:06:21.419Z,96556.06
2022-09-11T13:08:52.399Z,96562.47
2022-09-11T13:11:45.865Z,96552.59
2022-09-11T13:14:50.250Z,96553.88
2022-09-11T13:17:26.198Z,96545.34
2022-09-11T13:19:58.465Z,96545.31
2022-09-11T13:22:28.629Z,96542.22
2022-09-11T13:25:07.439Z,96548.19
2022-09-11T13:27:37.567Z,96542.91
2022-09-11T13:30:07.313Z,96543.28
2022-09-11T13:32:36.098Z,96538.38
2022-09-11T13:35:09.180Z,96543.50
2022-09-11T13:37:39.489Z,96546.94
2022-09-11T13:40:09.254Z,96544.03
2022-09-11T13:42:37.569Z,96543.75
2022-09-11T13:45:06.895Z,96547.78
2022-09-11T13:47:42.112Z,96545.16
2022-09-11T13:50:14.814Z,96545.28
2022-09-11T13:52:44.733Z,96551.88
2022-09-11T13:55:19.012Z,96541.31
2022-09-11T13:57:54.921Z,96541.22
2022-09-11T14:00:40.869Z,96538.78
2022-09-11T14:03:18.245Z,96544.41
2022-09-11T14:05:55.169Z,96540.91
2022-09-11T14:08:28.150Z,96541.94
2022-09-11T14:10:58.173Z,96536.94
2022-09-11T14:13:33.025Z,96533.81
2022-09-11T14:16:03.874Z,96531.00
2022-09-11T14:18:35.919Z,96525.44
2022-09-11T14:21:07.780Z,96532.97
2022-09-11T14:23:43.120Z,96520.84
2022-09-11T14:26:16.938Z,96533.91
2022-09-11T14:28:48.844Z,96531.78
2022-09-11T14:31:29.443Z,96541.16
2022-09-11T14:34:15.100Z,96536.44
2022-09-11T14:36:47.751Z,96535.38
2022-09-11T14:39:22.304Z,96538.69
2022-09-11T14:41:50.549Z,96535.97
2022-09-11T14:44:19.970Z,96528.34
2022-09-11T14:46:48.200Z,96525.97
2022-09-11T14:49:16.699Z,96532.78
2022-09-11T14:51:49.188Z,96530.03
2022-09-11T14:54:18.959Z,96524.03
2022-09-11T14:56:49.084Z,96522.91
2022-09-11T14:59:17.811Z,96521.53
2022-09-11T15:01:46.240Z,96523.78
2022-09-11T15:04:19.790Z,96517.84
2022-09-11T15:06:52.096Z,96515.72
2022-09-11T15:09:20.503Z,96521.50
2022-09-11T15:11:50.422Z,96519.41
2022-09-11T15:14:32.524Z,96526.84
2022-09-11T15:17:10.434Z,96526.78
2022-09-11T15:19:39.012Z,96523.94
2022-09-11T15:22:09.120Z,96524.97
2022-09-11T15:24:37.328Z,96529.53
2022-09-11T15:27:05.928Z,96526.94
2022-09-11T15:29:34.703Z,96523.28
2022-09-11T15:32:04.380Z,96526.78
2022-09-11T15:34:33.179Z,96525.41
2022-09-11T15:37:01.420Z,96533.34
2022-09-11T15:39:31.156Z,96523.78
2022-09-11T15:41:59.332Z,96521.78
2022-09-11T15:44:28.749Z,96529.03
2022-09-11T15:46:58.523Z,96519.50
2022-09-11T15:49:29.281Z,96521.38
2022-09-11T15:51:58.013Z,96511.94
2022-09-11T15:54:26.925Z,96517.03
2022-09-11T15:56:56.512Z,96517.84
2022-09-11T15:59:24.842Z,96517.28
2022-09-11T16:01:53.182Z,96516.66
2022-09-11T16:04:22.964Z,96519.16
2022-09-11T16:06:53.380Z,96516.97
2022-09-11T16:09:22.927Z,96522.50
2022-09-11T16:11:51.835Z,96511.31
2022-09-11T16:14:23.413Z,96521.22
2022-09-11T16:16:51.884Z,96513.72
2022-09-11T16:19:22.242Z,96518.28
2022-09-11T16:21:50.329Z,96529.31
2022-09-11T16:24:18.489Z,96526.69
2022-09-11T16:26:46.913Z,96524.69
2022-09-11T16:29:18.036Z,96521.91
2022-09-11T16:31:47.799Z,96522.97
2022-09-11T16:34:17.859Z,96515.88
2022-09-11T16:36:46.578Z,96518.25
2022-09-11T16:39:16.225Z,96518.38
2022-09-11T16:41:44.692Z,96516.66
2022-09-11T16:44:15.023Z,96526.88
2022-09-11T16:46:43.390Z,96516.78
2022-09-11T16:49:15.895Z,96520.28
2022-09-11T16:51:45.422Z,96513.69
2022-09-11T16:54:13.676Z,96535.13
2022-09-11T16:56:45.887Z,96527.28
2022-09-11T16:59:15.667Z,96529.53
2022-09-11T17:01:44.047Z,96535.50
2022-09-11T17:04:13.725Z,96539.25
2022-09-11T17:06:41.950Z,96535.38
2022-09-11T17:09:10.223Z,96530.91
2022-09-11T17:11:39.123Z,96527.66
2022-09-11T17:14:08.218Z,96524.56
2022-09-11T17:16:36.445Z,96528.09
2022-09-11T17:19:04.664Z,96529.75
2022-09-11T17:21:35.993Z,96527.97
2022-09-11T17:24:05.275Z,96530.22
2022-09-11T17:26:33.601Z,96521.38
2022-09-11T17:29:03.525Z,96524.72
2022-09-11T17:31:32.564Z,96516.97
2022-09-11T17:34:00.898Z,96515.06
2022-09-11T17:36:29.223Z,96516.34
2022-09-11T17:38:59.323Z,96521.38
2022-09-11T17:41:27.593Z,96521.63
2022-09-11T17:43:55.852Z,96527.59
2022-09-11T17:46:24.856Z,96533.13
2022-09-11T17:48:53.149Z,96523.72
2022-09-11T17:51:24.137Z,96523.44
2022-09-11T17:53:55.400Z,96522.78
2022-09-11T17:56:27.033Z,96521.13
2022-09-11T17:58:56.699Z,96524.31
2022-09-11T18:01:26.085Z,96529.53
2022-09-11T18:03:56.664Z,96524.69
2022-09-11T18:06:26.184Z,96519.94
2022-09-11T18:08:56.719Z,96520.09
2022-09-11T18:11:26.430Z,96523.34
2022-09-11T18:13:54.879Z,96530.50
2022-09-11T18:16:23.304Z,96524.75
2022-09-11T18:18:51.614Z,96534.69
2022-09-11T18:21:19.845Z,96531.41
2022-09-11T18:23:49.721Z,96536.25
2022-09-11T18:26:23.090Z,96539.91
2022-09-11T18:28:56.695Z,96540.81
2022-09-11T18:31:25.467Z,96530.50
2022-09-11T18:33:55.299Z,96541.84
2022-09-11T18:36:23.940Z,96534.69
2022-09-11T18:38:52.447Z,96536.97
2022-09-11T18:41:21.477Z,96543.44
2022-09-11T18:43:50.102Z,96538.13
2022-09-11T18:46:19.810Z,96540.00
2022-09-11T18:48:48.527Z,96546.13
2022-09-11T18:51:17.344Z,96536.41
2022-09-11T18:53:48.387Z,96531.78
2022-09-11T18:56:16.783Z,96540.34
2022-09-11T18:58:45.459Z,96539.75
2022-09-11T19:01:16.804Z,96545.41
2022-09-11T19:03:47.179Z,96545.25
2022-09-11T19:06:16.547Z,96538.22
2022-09-11T19:08:47.535Z,96551.97
2022-09-11T19:11:17.953Z,96550.72
2022-09-11T19:13:48.698Z,96550.03
2022-09-11T19:16:18.841Z,96552.91
2022-09-11T19:18:49.121Z,96547.91
2022-09-11T19:21:20.671Z,96566.47
2022-09-11T19:23:50.104Z,96561.59
2022-09-11T19:26:20.802Z,96559.72
2022-09-11T19:28:49.856Z,96561.66
2022-09-11T19:31:21.141Z,96566.00
2022-09-11T19:33:51.574Z,96568.16
2022-09-11T19:36:21.979Z,96571.28
2022-09-11T19:38:51.544Z,96569.03
2022-09-11T19:41:23.488Z,96565.09
2022-09-11T19:43:54.056Z,96567.41
2022-09-11T19:46:24.156Z,96569.00
2022-09-11T19:48:56.765Z,96570.59
2022-09-11T19:51:27.313Z,96565.19
2022-09-11T19:53:56.265Z,96577.06
2022-09-11T19:56:25.444Z,96575.06
2022-09-11T19:58:54.271Z,96578.53
2022-09-11T20:01:24.496Z,96562.81
2022-09-11T20:03:55.318Z,96570.63
2022-09-11T20:06:25.457Z,96561.38
2022-09-11T20:09:13.339Z,96564.88
2022-09-11T20:11:42.998Z,96562.41
2022-09-11T20:14:12.241Z,96566.19
2022-09-11T20:16:40.554Z,96575.13
2022-09-11T20:19:10.510Z,96575.72
2022-09-11T20:21:39.049Z,96565.59
2022-09-11T20:24:07.973Z,96570.31
2022-09-11T20:26:37.132Z,96569.53
2022-09-11T20:29:07.885Z,96562.75
2022-09-11T20:31:46.303Z,96572.25
2022-09-11T20:34:17.290Z,96575.13
2022-09-11T20:36:45.864Z,96572.50
2022-09-11T20:39:15.067Z,96576.75
2022-09-11T20:41:43.734Z,96575.94
2022-09-11T20:44:12.525Z,96572.06
2022-09-11T20:46:40.919Z,96571.44
2022-09-11T20:49:09.253Z,96573.50
2022-09-11T20:51:38.827Z,96563.19
2022-09-11T20:54:07.224Z,96572.88
2022-09-11T20:56:35.576Z,96566.69
2022-09-11T20:59:03.864Z,96566.91
2022-09-11T21:01:33.431Z,96568.13
2022-09-11T21:04:04.095Z,96570.00
2022-09-11T21:06:32.624Z,96561.72
2022-09-11T21:09:07.844Z,96568.75
2022-09-11T21:11:36.664Z,96567.13
2022-09-11T21:14:05.264Z,96557.94
2022-09-11T21:16:33.672Z,96562.19
2022-09-11T21:19:02.670Z,96574.31
2022-09-11T21:21:31.673Z,96572.88
2022-09-11T21:24:02.334Z,96563.19
2022-09-11T21:26:31.207Z,96571.03
2022-09-11T21:29:00.551Z,96569.38
2022-09-11T21:31:29.140Z,96563.81
2022-09-11T21:33:57.633Z,96567.28
2022-09-11T21:36:25.983Z,96562.16
2022-09-11T21:38:54.326Z,96571.78
2022-09-11T21:41:23.955Z,96565.59
2022-09-11T21:43:52.223Z,96572.19
2022-09-11T21:46:20.594Z,96563.31
2022-09-11T21:48:48.977Z,96567.69
2022-09-11T21:51:18.825Z,96571.25
2022-09-11T21:53:48.303Z,96558.19
2022-09-11T21:56:18.362Z,96556.69
2022-09-11T21:58:48.226Z,96548.72
2022-09-11T22:01:16.669Z,96556.66
2022-09-11T22:03:45.369Z,96553.16
2022-09-11T22:06:14.365Z,96557.47
2022-09-11T22:08:43.624Z,96559.19
2022-09-11T22:11:12.187Z,96562.50
2022-09-11T22:13:40.949Z,96559.63
2022-09-11T22:16:12.285Z,96560.91
2022-09-11T22:18:41.216Z,96560.00
2022-09-11T22:21:10.606Z,96553.81
2022-09-11T22:23:38.927Z,96559.94
2022-09-11T22:26:09.755Z,96561.81
2022-09-11T22:28:38.466Z,96565.22
2022-09-11T22:31:13.416Z,96563.94
2022-09-11T22:33:42.717Z,96562.22
2022-09-11T22:36:12.843Z,96558.75
2022-09-11T22:38:41.337Z,96556.59
2022-09-11T22:41:10.451Z,96560.19
2022-09-11T22:43:38.989Z,96570.63
2022-09-11T22:46:07.359Z,96566.38
2022-09-11T22:48:37.234Z,96563.59
2022-09-11T22:51:05.586Z,96558.81
2022-09-11T22:53:34.161Z,96568.63
2022-09-11T22:56:02.849Z,96563.59
2022-09-11T22:58:31.620Z,96560.16
2022-09-11T23:01:01.073Z,96558.41
2022-09-11T23:03:29.377Z,96555.34
2022-09-11T23:06:17.414Z,96554.56
2022-09-11T23:08:46.930Z,96555.06
2022-09-11T23:11:16.964Z,96557.81
2022-09-11T23:13:47.725Z,96556.06
2022-09-11T23:16:18.568Z,96560.03
2022-09-11T23:18:47.096Z,96558.97
2022-09-11T23:21:16.836Z,96556.72
2022-09-11T23:23:45.325Z,96554.50
2022-09-11T23:26:14.614Z,96551.03
2022-09-11T23:28:43.111Z,96551.41
2022-09-11T23:31:12.723Z,96548.94
2022-09-11T23:33:41.262Z,96552.94
2022-09-11T23:36:11.212Z,96546.72
2022-09-11T23:38:41.180Z,96542.47
2022-09-11T23:41:09.397Z,96540.22
2022-09-11T23:43:37.673Z,96536.75
2022-09-11T23:46:06.202Z,96535.22
2022-09-11T23:48:34.623Z,96532.44
2022-09-11T23:51:02.853Z,96529.75
2022-09-11T23:53:31.516Z,96520.47
2022-09-11T23:56:01.136Z,96518.38
2022-09-11T23:58:29.336Z,96522.31
